createdAt,value
2019-04-20T00:11:17.659Z,54.40
2019-04-20T00:26:21.938Z,56.21
2019-04-20T00:41:21.235Z,56.37
2019-04-20T00:56:22.417Z,58.56
2019-04-20T01:11:28.898Z,60.25
2019-04-20T01:26:29.300Z,60.66
2019-04-20T01:41:30.721Z,61.38
2019-04-20T01:56:44.650Z,63.90
2019-04-20T02:11:42.597Z,64.86
2019-04-20T02:26:43.012Z,64.97
2019-04-20T02:42:20.081Z,67.38
2019-04-20T02:57:39.889Z,67.10
2019-04-20T03:12:21.628Z,69.21
2019-04-20T03:27:19.693Z,72.01
2019-04-20T03:42:08.565Z,72.56
2019-04-20T03:57:39.075Z,73.63
2019-04-20T04:12:23.671Z,75.29
2019-04-20T04:27:40.586Z,76.68
2019-04-20T04:42:46.516Z,78.20
2019-04-20T04:57:32.601Z,77.20
2019-04-20T05:12:35.435Z,77.19
2019-04-20T05:27:56.258Z,74.02
2019-04-20T05:42:59.465Z,69.70
2019-04-20T05:58:08.898Z,62.10
2019-04-20T06:13:11.212Z,57.70
2019-04-20T06:28:17.338Z,52.40
2019-04-20T06:43:38.709Z,48.68
2019-04-20T06:58:46.047Z,44.46
2019-04-20T07:13:28.746Z,42.15
2019-04-20T07:28:47.341Z,40.95
2019-04-20T07:43:59.052Z,37.63
2019-04-20T07:58:41.123Z,38.68
2019-04-20T08:13:59.043Z,35.69
2019-04-20T08:28:50.763Z,34.11
2019-04-20T08:44:21.702Z,33.18
2019-04-20T08:58:53.139Z,30.21
2019-04-20T09:13:58.355Z,29.28
2019-04-20T09:29:12.703Z,29.55
2019-04-20T09:44:04.607Z,27.40
2019-04-20T09:59:25.242Z,23.71
2019-04-20T10:14:10.767Z,22.38
2019-04-20T10:29:11.354Z,22.36
2019-04-20T10:44:12.346Z,20.18
2019-04-20T10:59:12.266Z,19.27
2019-04-20T11:14:17.939Z,18.70
2019-04-20T11:29:18.208Z,16.81
2019-04-20T11:44:20.177Z,17.68
2019-04-20T11:59:21.066Z,17.27
2019-04-20T12:14:22.915Z,15.99
2019-04-20T12:29:23.777Z,17.13
2019-04-20T12:44:24.215Z,16.25
2019-04-20T12:59:25.576Z,15.76
2019-04-20T13:14:26.345Z,15.57
2019-04-20T13:29:26.911Z,15.83
2019-04-20T13:44:27.258Z,13.18
2019-04-20T13:59:27.885Z,14.56
2019-04-20T14:14:28.983Z,13.98
2019-04-20T14:29:30.652Z,14.76
2019-04-20T14:44:32.060Z,14.19
2019-04-20T14:59:33.691Z,15.56
2019-04-20T15:14:34.643Z,13.61
2019-04-20T15:29:36.094Z,13.94
2019-04-20T15:44:37.580Z,13.48
2019-04-20T15:59:38.225Z,15.79
2019-04-20T16:14:39.569Z,17.13
2019-04-20T16:29:39.791Z,19.29
2019-04-20T16:44:40.993Z,22.24
2019-04-20T16:59:48.159Z,24.41
2019-04-20T17:14:47.570Z,27.58
2019-04-20T17:29:50.139Z,29.13
2019-04-20T17:45:00.766Z,32.01
2019-04-20T17:59:59.717Z,34.19
2019-04-20T18:15:24.322Z,37.90
2019-04-20T18:30:23.703Z,41.72
2019-04-20T18:45:29.596Z,45.48
2019-04-20T19:00:26.162Z,46.78
2019-04-20T19:15:44.177Z,43.79
2019-04-20T19:30:37.299Z,43.35
2019-04-20T19:46:07.297Z,44.87
2019-04-20T20:00:41.108Z,48.89
2019-04-20T20:15:43.205Z,51.51
2019-04-20T20:30:58.186Z,49.62
2019-04-20T20:46:01.089Z,50.27
2019-04-20T21:01:02.993Z,52.65
2019-04-20T21:16:03.463Z,57.53
2019-04-20T21:31:12.282Z,58.61
2019-04-20T21:46:12.015Z,58.69
2019-04-20T22:01:22.187Z,60.19
2019-04-20T22:16:21.934Z,62.09
2019-04-20T22:31:22.569Z,63.39
2019-04-20T22:46:28.889Z,64.65
2019-04-20T23:01:38.774Z,65.33
2019-04-20T23:16:38.122Z,67.35
2019-04-20T23:31:46.183Z,67.48
2019-04-20T23:46:43.563Z,68.34
